sensor_id;sensor_type;location;lat;lon;timestamp;P1;P2;P0
49644;PMS5003;36494;50.730;-1.932;2022-12-18T00:01:17;11;10;
49644;PMS5003;36494;50.730;-1.932;2022-12-18T00:03:41;9;9;
49644;PMS5003;36494;50.730;-1.932;2022-12-18T00:06:07;12;11;
49644;PMS5003;36494;50.730;-1.932;2022-12-18T00:08:32;10;9;
49644;PMS5003;36494;50.730;-1.932;2022-12-18T00:11:02;11;10;
49644;PMS5003;36494;50.730;-1.932;2022-12-18T00:13:23;9;9;
49644;PMS5003;36494;50.730;-1.932;2022-12-18T00:15:49;11;11;
49644;PMS5003;36494;50.730;-1.932;2022-12-18T00:18:14;13;12;
49644;PMS5003;36494;50.730;-1.932;2022-12-18T00:20:40;7;6;
49644;PMS5003;36494;50.730;-1.932;2022-12-18T00:23:05;9;8;
49644;PMS5003;36494;50.730;-1.932;2022-12-18T00:25:32;12;9;
49644;PMS5003;36494;50.730;-1.932;2022-12-18T00:27:56;9;9;
49644;PMS5003;36494;50.730;-1.932;2022-12-18T00:30:22;10;9;
49644;PMS5003;36494;50.730;-1.932;2022-12-18T00:32:47;8;8;
49644;PMS5003;36494;50.730;-1.932;2022-12-18T00:35:12;10;9;
49644;PMS5003;36494;50.730;-1.932;2022-12-18T00:37:38;12;12;
49644;PMS5003;36494;50.730;-1.932;2022-12-18T00:40:03;14;13;
49644;PMS5003;36494;50.730;-1.932;2022-12-18T00:42:28;14;13;
49644;PMS5003;36494;50.730;-1.932;2022-12-18T00:44:54;15;15;
49644;PMS5003;36494;50.730;-1.932;2022-12-18T00:47:19;10;10;
49644;PMS5003;36494;50.730;-1.932;2022-12-18T00:49:45;10;9;
49644;PMS5003;36494;50.730;-1.932;2022-12-18T00:52:10;12;12;
49644;PMS5003;36494;50.730;-1.932;2022-12-18T00:54:35;15;15;
49644;PMS5003;36494;50.730;-1.932;2022-12-18T00:57:00;12;10;
49644;PMS5003;36494;50.730;-1.932;2022-12-18T00:59:26;10;10;
49644;PMS5003;36494;50.730;-1.932;2022-12-18T01:01:51;10;10;
49644;PMS5003;36494;50.730;-1.932;2022-12-18T01:04:17;11;11;
49644;PMS5003;36494;50.730;-1.932;2022-12-18T01:06:42;10;9;
49644;PMS5003;36494;50.730;-1.932;2022-12-18T01:09:08;8;8;
49644;PMS5003;36494;50.730;-1.932;2022-12-18T01:11:33;9;8;
49644;PMS5003;36494;50.730;-1.932;2022-12-18T01:13:58;10;10;
49644;PMS5003;36494;50.730;-1.932;2022-12-18T01:16:24;10;10;
49644;PMS5003;36494;50.730;-1.932;2022-12-18T01:18:51;12;11;
49644;PMS5003;36494;50.730;-1.932;2022-12-18T01:21:15;10;9;
49644;PMS5003;36494;50.730;-1.932;2022-12-18T01:23:40;11;10;
49644;PMS5003;36494;50.730;-1.932;2022-12-18T01:26:06;11;11;
49644;PMS5003;36494;50.730;-1.932;2022-12-18T01:28:31;10;10;
49644;PMS5003;36494;50.730;-1.932;2022-12-18T01:30:56;11;10;
49644;PMS5003;36494;50.730;-1.932;2022-12-18T01:33:21;13;12;
49644;PMS5003;36494;50.730;-1.932;2022-12-18T01:35:47;17;15;
49644;PMS5003;36494;50.730;-1.932;2022-12-18T01:38:13;10;10;
49644;PMS5003;36494;50.730;-1.932;2022-12-18T01:40:38;10;9;
49644;PMS5003;36494;50.730;-1.932;2022-12-18T01:43:03;12;8;
49644;PMS5003;36494;50.730;-1.932;2022-12-18T01:45:29;9;9;
49644;PMS5003;36494;50.730;-1.932;2022-12-18T01:47:55;10;9;
49644;PMS5003;36494;50.730;-1.932;2022-12-18T01:50:20;9;8;
49644;PMS5003;36494;50.730;-1.932;2022-12-18T01:52:46;10;10;
49644;PMS5003;36494;50.730;-1.932;2022-12-18T01:55:10;11;10;
49644;PMS5003;36494;50.730;-1.932;2022-12-18T01:57:35;11;11;
49644;PMS5003;36494;50.730;-1.932;2022-12-18T02:00:03;14;13;
49644;PMS5003;36494;50.730;-1.932;2022-12-18T02:02:26;12;11;
49644;PMS5003;36494;50.730;-1.932;2022-12-18T02:04:51;11;9;
49644;PMS5003;36494;50.730;-1.932;2022-12-18T02:07:22;8;8;
49644;PMS5003;36494;50.730;-1.932;2022-12-18T02:09:44;12;12;
49644;PMS5003;36494;50.730;-1.932;2022-12-18T02:12:10;11;10;
49644;PMS5003;36494;50.730;-1.932;2022-12-18T02:14:34;10;9;
49644;PMS5003;36494;50.730;-1.932;2022-12-18T02:16:59;10;10;
49644;PMS5003;36494;50.730;-1.932;2022-12-18T02:19:30;7;7;
49644;PMS5003;36494;50.730;-1.932;2022-12-18T02:21:51;9;9;
49644;PMS5003;36494;50.730;-1.932;2022-12-18T02:24:17;9;8;
49644;PMS5003;36494;50.730;-1.932;2022-12-18T02:26:41;10;9;
49644;PMS5003;36494;50.730;-1.932;2022-12-18T02:29:08;7;7;
49644;PMS5003;36494;50.730;-1.932;2022-12-18T02:31:33;11;10;
49644;PMS5003;36494;50.730;-1.932;2022-12-18T02:33:58;11;10;
49644;PMS5003;36494;50.730;-1.932;2022-12-18T02:36:22;10;8;
49644;PMS5003;36494;50.730;-1.932;2022-12-18T02:38:47;7;7;
49644;PMS5003;36494;50.730;-1.932;2022-12-18T02:41:13;8;8;
49644;PMS5003;36494;50.730;-1.932;2022-12-18T02:43:38;8;8;
49644;PMS5003;36494;50.730;-1.932;2022-12-18T02:48:30;9;9;
49644;PMS5003;36494;50.730;-1.932;2022-12-18T02:50:57;9;8;
49644;PMS5003;36494;50.730;-1.932;2022-12-18T02:53:22;11;10;
49644;PMS5003;36494;50.730;-1.932;2022-12-18T02:55:49;10;9;
49644;PMS5003;36494;50.730;-1.932;2022-12-18T02:58:12;9;9;
49644;PMS5003;36494;50.730;-1.932;2022-12-18T03:00:37;11;11;
49644;PMS5003;36494;50.730;-1.932;2022-12-18T03:03:03;10;10;
49644;PMS5003;36494;50.730;-1.932;2022-12-18T03:05:28;12;12;
49644;PMS5003;36494;50.730;-1.932;2022-12-18T03:07:53;10;10;
49644;PMS5003;36494;50.730;-1.932;2022-12-18T03:10:19;12;11;
49644;PMS5003;36494;50.730;-1.932;2022-12-18T03:12:43;15;12;
49644;PMS5003;36494;50.730;-1.932;2022-12-18T03:15:09;11;10;
49644;PMS5003;36494;50.730;-1.932;2022-12-18T03:17:33;13;12;
49644;PMS5003;36494;50.730;-1.932;2022-12-18T03:20:00;11;11;
49644;PMS5003;36494;50.730;-1.932;2022-12-18T03:22:24;10;10;
49644;PMS5003;36494;50.730;-1.932;2022-12-18T03:24:49;13;12;
49644;PMS5003;36494;50.730;-1.932;2022-12-18T03:27:14;11;10;
49644;PMS5003;36494;50.730;-1.932;2022-12-18T03:29:40;11;11;
49644;PMS5003;36494;50.730;-1.932;2022-12-18T03:32:05;10;10;
49644;PMS5003;36494;50.730;-1.932;2022-12-18T03:34:31;12;10;
49644;PMS5003;36494;50.730;-1.932;2022-12-18T03:36:55;12;12;
49644;PMS5003;36494;50.730;-1.932;2022-12-18T03:39:21;15;13;
49644;PMS5003;36494;50.730;-1.932;2022-12-18T03:41:47;13;13;
49644;PMS5003;36494;50.730;-1.932;2022-12-18T03:44:13;15;14;
49644;PMS5003;36494;50.730;-1.932;2022-12-18T03:46:39;13;13;
49644;PMS5003;36494;50.730;-1.932;2022-12-18T03:49:05;13;12;
49644;PMS5003;36494;50.730;-1.932;2022-12-18T03:51:31;15;14;
49644;PMS5003;36494;50.730;-1.932;2022-12-18T03:53:55;10;10;
49644;PMS5003;36494;50.730;-1.932;2022-12-18T03:56:19;11;11;
49644;PMS5003;36494;50.730;-1.932;2022-12-18T03:58:45;19;16;
49644;PMS5003;36494;50.730;-1.932;2022-12-18T04:01:12;14;14;
49644;PMS5003;36494;50.730;-1.932;2022-12-18T04:03:36;13;12;
49644;PMS5003;36494;50.730;-1.932;2022-12-18T04:06:02;17;15;
49644;PMS5003;36494;50.730;-1.932;2022-12-18T04:08:28;14;14;
49644;PMS5003;36494;50.730;-1.932;2022-12-18T04:10:53;16;14;
49644;PMS5003;36494;50.730;-1.932;2022-12-18T04:13:22;17;15;
49644;PMS5003;36494;50.730;-1.932;2022-12-18T04:15:44;15;14;
49644;PMS5003;36494;50.730;-1.932;2022-12-18T04:18:09;16;15;
49644;PMS5003;36494;50.730;-1.932;2022-12-18T04:20:35;16;16;
49644;PMS5003;36494;50.730;-1.932;2022-12-18T04:23:01;16;16;
49644;PMS5003;36494;50.730;-1.932;2022-12-18T04:25:26;14;14;
49644;PMS5003;36494;50.730;-1.932;2022-12-18T04:27:52;17;17;
49644;PMS5003;36494;50.730;-1.932;2022-12-18T04:30:17;18;17;
49644;PMS5003;36494;50.730;-1.932;2022-12-18T04:32:43;15;15;
49644;PMS5003;36494;50.730;-1.932;2022-12-18T04:35:08;14;14;
49644;PMS5003;36494;50.730;-1.932;2022-12-18T04:37:34;13;13;
49644;PMS5003;36494;50.730;-1.932;2022-12-18T04:39:59;16;15;
49644;PMS5003;36494;50.730;-1.932;2022-12-18T04:42:24;15;15;
49644;PMS5003;36494;50.730;-1.932;2022-12-18T04:44:50;18;16;
49644;PMS5003;36494;50.730;-1.932;2022-12-18T04:47:15;20;18;
49644;PMS5003;36494;50.730;-1.932;2022-12-18T04:49:41;19;18;
49644;PMS5003;36494;50.730;-1.932;2022-12-18T04:52:06;18;18;
49644;PMS5003;36494;50.730;-1.932;2022-12-18T04:54:31;19;18;
49644;PMS5003;36494;50.730;-1.932;2022-12-18T04:56:56;20;18;
49644;PMS5003;36494;50.730;-1.932;2022-12-18T04:59:22;16;16;
49644;PMS5003;36494;50.730;-1.932;2022-12-18T05:01:47;15;14;
49644;PMS5003;36494;50.730;-1.932;2022-12-18T05:04:13;17;16;
49644;PMS5003;36494;50.730;-1.932;2022-12-18T05:06:38;18;18;
49644;PMS5003;36494;50.730;-1.932;2022-12-18T05:09:04;14;13;
49644;PMS5003;36494;50.730;-1.932;2022-12-18T05:11:29;16;15;
49644;PMS5003;36494;50.730;-1.932;2022-12-18T05:13:56;17;16;
49644;PMS5003;36494;50.730;-1.932;2022-12-18T05:16:20;21;21;
49644;PMS5003;36494;50.730;-1.932;2022-12-18T05:18:46;18;16;
49644;PMS5003;36494;50.730;-1.932;2022-12-18T05:21:11;17;17;
49644;PMS5003;36494;50.730;-1.932;2022-12-18T05:23:36;21;19;
49644;PMS5003;36494;50.730;-1.932;2022-12-18T05:26:02;22;21;
49644;PMS5003;36494;50.730;-1.932;2022-12-18T05:28:27;20;19;
49644;PMS5003;36494;50.730;-1.932;2022-12-18T05:30:52;20;19;
49644;PMS5003;36494;50.730;-1.932;2022-12-18T05:33:17;19;19;
49644;PMS5003;36494;50.730;-1.932;2022-12-18T05:35:42;20;20;
49644;PMS5003;36494;50.730;-1.932;2022-12-18T05:38:08;18;17;
49644;PMS5003;36494;50.730;-1.932;2022-12-18T05:40:33;21;18;
49644;PMS5003;36494;50.730;-1.932;2022-12-18T05:42:59;20;18;
49644;PMS5003;36494;50.730;-1.932;2022-12-18T05:45:24;20;20;
49644;PMS5003;36494;50.730;-1.932;2022-12-18T05:47:50;19;19;
49644;PMS5003;36494;50.730;-1.932;2022-12-18T05:50:15;23;21;
49644;PMS5003;36494;50.730;-1.932;2022-12-18T05:52:41;23;22;
49644;PMS5003;36494;50.730;-1.932;2022-12-18T05:55:07;16;16;
49644;PMS5003;36494;50.730;-1.932;2022-12-18T05:57:33;19;19;
49644;PMS5003;36494;50.730;-1.932;2022-12-18T05:59:58;20;20;
49644;PMS5003;36494;50.730;-1.932;2022-12-18T06:02:23;17;15;
49644;PMS5003;36494;50.730;-1.932;2022-12-18T06:04:49;18;18;
49644;PMS5003;36494;50.730;-1.932;2022-12-18T06:07:15;21;21;
49644;PMS5003;36494;50.730;-1.932;2022-12-18T06:09:40;17;16;
49644;PMS5003;36494;50.730;-1.932;2022-12-18T06:12:06;22;19;
49644;PMS5003;36494;50.730;-1.932;2022-12-18T06:14:32;18;18;
49644;PMS5003;36494;50.730;-1.932;2022-12-18T06:16:57;24;22;
49644;PMS5003;36494;50.730;-1.932;2022-12-18T06:19:22;24;21;
49644;PMS5003;36494;50.730;-1.932;2022-12-18T06:21:48;25;23;
49644;PMS5003;36494;50.730;-1.932;2022-12-18T06:24:14;22;22;
49644;PMS5003;36494;50.730;-1.932;2022-12-18T06:26:39;27;27;
49644;PMS5003;36494;50.730;-1.932;2022-12-18T06:29:05;26;23;
49644;PMS5003;36494;50.730;-1.932;2022-12-18T06:31:30;26;24;
49644;PMS5003;36494;50.730;-1.932;2022-12-18T06:33:56;23;21;
49644;PMS5003;36494;50.730;-1.932;2022-12-18T06:36:22;24;22;
49644;PMS5003;36494;50.730;-1.932;2022-12-18T06:38:47;28;26;
49644;PMS5003;36494;50.730;-1.932;2022-12-18T06:41:13;22;22;
49644;PMS5003;36494;50.730;-1.932;2022-12-18T06:43:38;26;25;
49644;PMS5003;36494;50.730;-1.932;2022-12-18T06:46:03;26;25;
49644;PMS5003;36494;50.730;-1.932;2022-12-18T06:48:28;27;26;
49644;PMS5003;36494;50.730;-1.932;2022-12-18T06:50:53;30;28;
49644;PMS5003;36494;50.730;-1.932;2022-12-18T06:53:18;25;24;
49644;PMS5003;36494;50.730;-1.932;2022-12-18T06:55:44;28;28;
49644;PMS5003;36494;50.730;-1.932;2022-12-18T06:58:09;23;23;
49644;PMS5003;36494;50.730;-1.932;2022-12-18T07:00:35;28;27;
49644;PMS5003;36494;50.730;-1.932;2022-12-18T07:03:00;28;27;
49644;PMS5003;36494;50.730;-1.932;2022-12-18T07:05:25;27;25;
49644;PMS5003;36494;50.730;-1.932;2022-12-18T07:07:51;25;24;
49644;PMS5003;36494;50.730;-1.932;2022-12-18T07:10:16;29;26;
49644;PMS5003;36494;50.730;-1.932;2022-12-18T07:12:42;26;23;
49644;PMS5003;36494;50.730;-1.932;2022-12-18T07:15:08;28;26;
49644;PMS5003;36494;50.730;-1.932;2022-12-18T07:17:33;26;25;
49644;PMS5003;36494;50.730;-1.932;2022-12-18T07:19:58;23;22;
49644;PMS5003;36494;50.730;-1.932;2022-12-18T07:22:24;24;23;
49644;PMS5003;36494;50.730;-1.932;2022-12-18T07:24:49;29;27;
49644;PMS5003;36494;50.730;-1.932;2022-12-18T07:27:15;26;25;
49644;PMS5003;36494;50.730;-1.932;2022-12-18T07:29:40;28;26;
49644;PMS5003;36494;50.730;-1.932;2022-12-18T07:32:06;24;23;
49644;PMS5003;36494;50.730;-1.932;2022-12-18T07:34:31;24;23;
49644;PMS5003;36494;50.730;-1.932;2022-12-18T07:36:57;23;22;
49644;PMS5003;36494;50.730;-1.932;2022-12-18T07:39:22;32;28;
49644;PMS5003;36494;50.730;-1.932;2022-12-18T07:41:48;28;25;
49644;PMS5003;36494;50.730;-1.932;2022-12-18T07:44:13;27;26;
49644;PMS5003;36494;50.730;-1.932;2022-12-18T07:46:39;25;25;
49644;PMS5003;36494;50.730;-1.932;2022-12-18T07:49:05;25;25;
49644;PMS5003;36494;50.730;-1.932;2022-12-18T07:51:31;25;25;
49644;PMS5003;36494;50.730;-1.932;2022-12-18T07:53:56;29;29;
49644;PMS5003;36494;50.730;-1.932;2022-12-18T07:56:21;26;24;
49644;PMS5003;36494;50.730;-1.932;2022-12-18T07:58:47;34;32;
49644;PMS5003;36494;50.730;-1.932;2022-12-18T08:01:12;28;27;
49644;PMS5003;36494;50.730;-1.932;2022-12-18T08:03:38;31;28;
49644;PMS5003;36494;50.730;-1.932;2022-12-18T08:06:05;30;26;
49644;PMS5003;36494;50.730;-1.932;2022-12-18T08:08:29;31;29;
49644;PMS5003;36494;50.730;-1.932;2022-12-18T08:10:54;29;28;
49644;PMS5003;36494;50.730;-1.932;2022-12-18T08:13:21;35;33;
49644;PMS5003;36494;50.730;-1.932;2022-12-18T08:15:45;38;36;
49644;PMS5003;36494;50.730;-1.932;2022-12-18T08:18:11;45;37;
49644;PMS5003;36494;50.730;-1.932;2022-12-18T08:20:37;37;36;
49644;PMS5003;36494;50.730;-1.932;2022-12-18T08:23:02;36;35;
49644;PMS5003;36494;50.730;-1.932;2022-12-18T08:25:27;31;31;
49644;PMS5003;36494;50.730;-1.932;2022-12-18T08:27:53;36;34;
49644;PMS5003;36494;50.730;-1.932;2022-12-18T08:30:19;38;36;
49644;PMS5003;36494;50.730;-1.932;2022-12-18T08:32:44;43;42;
49644;PMS5003;36494;50.730;-1.932;2022-12-18T08:35:10;46;44;
49644;PMS5003;36494;50.730;-1.932;2022-12-18T08:37:36;39;37;
49644;PMS5003;36494;50.730;-1.932;2022-12-18T08:40:01;38;37;
49644;PMS5003;36494;50.730;-1.932;2022-12-18T08:42:26;47;42;
49644;PMS5003;36494;50.730;-1.932;2022-12-18T08:44:51;43;40;
49644;PMS5003;36494;50.730;-1.932;2022-12-18T08:47:16;48;42;
49644;PMS5003;36494;50.730;-1.932;2022-12-18T08:49:42;53;48;
49644;PMS5003;36494;50.730;-1.932;2022-12-18T08:52:07;48;44;
49644;PMS5003;36494;50.730;-1.932;2022-12-18T08:54:33;42;42;
49644;PMS5003;36494;50.730;-1.932;2022-12-18T08:56:59;43;40;
49644;PMS5003;36494;50.730;-1.932;2022-12-18T08:59:24;50;45;
49644;PMS5003;36494;50.730;-1.932;2022-12-18T09:01:50;47;44;
49644;PMS5003;36494;50.730;-1.932;2022-12-18T09:04:15;44;43;
49644;PMS5003;36494;50.730;-1.932;2022-12-18T09:06:41;50;46;
49644;PMS5003;36494;50.730;-1.932;2022-12-18T09:09:06;41;41;
49644;PMS5003;36494;50.730;-1.932;2022-12-18T09:11:32;45;44;
49644;PMS5003;36494;50.730;-1.932;2022-12-18T09:13:59;49;44;
49644;PMS5003;36494;50.730;-1.932;2022-12-18T09:16:24;52;49;
49644;PMS5003;36494;50.730;-1.932;2022-12-18T09:18:49;41;38;
49644;PMS5003;36494;50.730;-1.932;2022-12-18T09:21:15;45;42;
49644;PMS5003;36494;50.730;-1.932;2022-12-18T09:23:40;43;42;
49644;PMS5003;36494;50.730;-1.932;2022-12-18T09:26:06;40;39;
49644;PMS5003;36494;50.730;-1.932;2022-12-18T09:28:31;46;42;
49644;PMS5003;36494;50.730;-1.932;2022-12-18T09:30:57;47;45;
49644;PMS5003;36494;50.730;-1.932;2022-12-18T09:33:22;44;42;
49644;PMS5003;36494;50.730;-1.932;2022-12-18T09:35:47;44;41;
49644;PMS5003;36494;50.730;-1.932;2022-12-18T09:38:14;49;46;
49644;PMS5003;36494;50.730;-1.932;2022-12-18T09:40:40;43;41;
49644;PMS5003;36494;50.730;-1.932;2022-12-18T09:43:04;47;44;
49644;PMS5003;36494;50.730;-1.932;2022-12-18T09:45:30;46;42;
49644;PMS5003;36494;50.730;-1.932;2022-12-18T09:47:55;46;43;
49644;PMS5003;36494;50.730;-1.932;2022-12-18T09:50:23;44;42;
49644;PMS5003;36494;50.730;-1.932;2022-12-18T09:52:48;40;38;
49644;PMS5003;36494;50.730;-1.932;2022-12-18T09:55:14;40;38;
49644;PMS5003;36494;50.730;-1.932;2022-12-18T09:57:40;46;44;
49644;PMS5003;36494;50.730;-1.932;2022-12-18T10:00:04;47;44;
49644;PMS5003;36494;50.730;-1.932;2022-12-18T10:02:30;39;38;
49644;PMS5003;36494;50.730;-1.932;2022-12-18T10:04:57;39;37;
49644;PMS5003;36494;50.730;-1.932;2022-12-18T10:07:20;39;37;
49644;PMS5003;36494;50.730;-1.932;2022-12-18T10:09:46;41;37;
49644;PMS5003;36494;50.730;-1.932;2022-12-18T10:12:12;34;33;
49644;PMS5003;36494;50.730;-1.932;2022-12-18T10:14:40;33;33;
49644;PMS5003;36494;50.730;-1.932;2022-12-18T10:17:03;38;36;
49644;PMS5003;36494;50.730;-1.932;2022-12-18T10:19:32;32;31;
49644;PMS5003;36494;50.730;-1.932;2022-12-18T10:21:56;24;24;
49644;PMS5003;36494;50.730;-1.932;2022-12-18T10:24:20;32;31;
49644;PMS5003;36494;50.730;-1.932;2022-12-18T10:26:45;30;30;
49644;PMS5003;36494;50.730;-1.932;2022-12-18T10:29:11;28;26;
49644;PMS5003;36494;50.730;-1.932;2022-12-18T10:31:36;33;32;
49644;PMS5003;36494;50.730;-1.932;2022-12-18T10:34:01;29;27;
49644;PMS5003;36494;50.730;-1.932;2022-12-18T10:36:27;25;24;
49644;PMS5003;36494;50.730;-1.932;2022-12-18T10:38:52;27;25;
49644;PMS5003;36494;50.730;-1.932;2022-12-18T10:41:23;31;30;
49644;PMS5003;36494;50.730;-1.932;2022-12-18T10:43:43;34;33;
49644;PMS5003;36494;50.730;-1.932;2022-12-18T10:46:13;30;29;
49644;PMS5003;36494;50.730;-1.932;2022-12-18T10:48:35;29;27;
49644;PMS5003;36494;50.730;-1.932;2022-12-18T10:51:00;32;32;
49644;PMS5003;36494;50.730;-1.932;2022-12-18T10:53:27;41;40;
49644;PMS5003;36494;50.730;-1.932;2022-12-18T10:55:51;42;38;
49644;PMS5003;36494;50.730;-1.932;2022-12-18T10:58:19;39;38;
49644;PMS5003;36494;50.730;-1.932;2022-12-18T11:00:42;50;50;
49644;PMS5003;36494;50.730;-1.932;2022-12-18T11:03:10;44;42;
49644;PMS5003;36494;50.730;-1.932;2022-12-18T11:05:33;41;39;
49644;PMS5003;36494;50.730;-1.932;2022-12-18T11:07:58;39;38;
49644;PMS5003;36494;50.730;-1.932;2022-12-18T11:10:25;44;43;
49644;PMS5003;36494;50.730;-1.932;2022-12-18T11:12:48;43;39;
49644;PMS5003;36494;50.730;-1.932;2022-12-18T11:15:15;31;29;
49644;PMS5003;36494;50.730;-1.932;2022-12-18T11:17:39;39;39;
49644;PMS5003;36494;50.730;-1.932;2022-12-18T11:20:05;55;54;
49644;PMS5003;36494;50.730;-1.932;2022-12-18T11:22:30;68;67;
49644;PMS5003;36494;50.730;-1.932;2022-12-18T11:24:56;27;26;
49644;PMS5003;36494;50.730;-1.932;2022-12-18T11:27:20;31;30;
49644;PMS5003;36494;50.730;-1.932;2022-12-18T11:29:46;31;30;
49644;PMS5003;36494;50.730;-1.932;2022-12-18T11:34:36;29;28;
49644;PMS5003;36494;50.730;-1.932;2022-12-18T11:37:01;32;28;
49644;PMS5003;36494;50.730;-1.932;2022-12-18T11:39:30;28;27;
49644;PMS5003;36494;50.730;-1.932;2022-12-18T11:41:53;40;38;
49644;PMS5003;36494;50.730;-1.932;2022-12-18T11:44:19;27;25;
49644;PMS5003;36494;50.730;-1.932;2022-12-18T11:46:45;34;34;
49644;PMS5003;36494;50.730;-1.932;2022-12-18T11:49:10;35;34;
49644;PMS5003;36494;50.730;-1.932;2022-12-18T11:51:35;52;52;
49644;PMS5003;36494;50.730;-1.932;2022-12-18T11:54:00;26;24;
49644;PMS5003;36494;50.730;-1.932;2022-12-18T11:56:27;24;24;
49644;PMS5003;36494;50.730;-1.932;2022-12-18T11:58:50;32;31;
49644;PMS5003;36494;50.730;-1.932;2022-12-18T12:01:23;29;27;
49644;PMS5003;36494;50.730;-1.932;2022-12-18T12:03:49;29;27;
49644;PMS5003;36494;50.730;-1.932;2022-12-18T12:06:08;42;39;
49644;PMS5003;36494;50.730;-1.932;2022-12-18T12:08:34;30;29;
49644;PMS5003;36494;50.730;-1.932;2022-12-18T12:10:58;34;31;
49644;PMS5003;36494;50.730;-1.932;2022-12-18T12:13:24;29;29;
49644;PMS5003;36494;50.730;-1.932;2022-12-18T12:15:50;27;26;
49644;PMS5003;36494;50.730;-1.932;2022-12-18T12:18:17;31;29;
49644;PMS5003;36494;50.730;-1.932;2022-12-18T12:20:42;27;25;
49644;PMS5003;36494;50.730;-1.932;2022-12-18T12:23:06;31;30;
49644;PMS5003;36494;50.730;-1.932;2022-12-18T12:25:33;35;33;
49644;PMS5003;36494;50.730;-1.932;2022-12-18T12:28:00;32;30;
49644;PMS5003;36494;50.730;-1.932;2022-12-18T12:30:22;26;26;
49644;PMS5003;36494;50.730;-1.932;2022-12-18T12:32:51;30;28;
49644;PMS5003;36494;50.730;-1.932;2022-12-18T12:35:17;28;26;
49644;PMS5003;36494;50.730;-1.932;2022-12-18T12:37:39;27;25;
49644;PMS5003;36494;50.730;-1.932;2022-12-18T12:40:03;27;26;
49644;PMS5003;36494;50.730;-1.932;2022-12-18T12:42:30;30;28;
49644;PMS5003;36494;50.730;-1.932;2022-12-18T12:44:54;33;33;
49644;PMS5003;36494;50.730;-1.932;2022-12-18T12:47:20;28;27;
49644;PMS5003;36494;50.730;-1.932;2022-12-18T12:49:45;29;29;
49644;PMS5003;36494;50.730;-1.932;2022-12-18T12:52:12;30;28;
49644;PMS5003;36494;50.730;-1.932;2022-12-18T12:54:36;27;26;
49644;PMS5003;36494;50.730;-1.932;2022-12-18T12:57:03;32;30;
49644;PMS5003;36494;50.730;-1.932;2022-12-18T12:59:28;28;27;
49644;PMS5003;36494;50.730;-1.932;2022-12-18T13:01:53;33;32;
49644;PMS5003;36494;50.730;-1.932;2022-12-18T13:04:20;40;39;
49644;PMS5003;36494;50.730;-1.932;2022-12-18T13:06:45;23;23;
49644;PMS5003;36494;50.730;-1.932;2022-12-18T13:09:09;50;47;
49644;PMS5003;36494;50.730;-1.932;2022-12-18T13:11:36;29;29;
49644;PMS5003;36494;50.730;-1.932;2022-12-18T13:14:00;21;20;
49644;PMS5003;36494;50.730;-1.932;2022-12-18T13:16:25;26;24;
49644;PMS5003;36494;50.730;-1.932;2022-12-18T13:18:51;21;21;
49644;PMS5003;36494;50.730;-1.932;2022-12-18T13:21:19;22;22;
49644;PMS5003;36494;50.730;-1.932;2022-12-18T13:23:41;19;18;
49644;PMS5003;36494;50.730;-1.932;2022-12-18T13:30:57;19;18;
49644;PMS5003;36494;50.730;-1.932;2022-12-18T13:35:53;17;16;
49644;PMS5003;36494;50.730;-1.932;2022-12-18T13:45:35;14;13;
49644;PMS5003;36494;50.730;-1.932;2022-12-18T13:47:55;17;15;
49644;PMS5003;36494;50.730;-1.932;2022-12-18T13:50:25;14;13;
49644;PMS5003;36494;50.730;-1.932;2022-12-18T13:52:46;18;17;
49644;PMS5003;36494;50.730;-1.932;2022-12-18T13:55:14;17;16;
49644;PMS5003;36494;50.730;-1.932;2022-12-18T13:57:37;14;13;
49644;PMS5003;36494;50.730;-1.932;2022-12-18T14:02:28;16;16;
49644;PMS5003;36494;50.730;-1.932;2022-12-18T14:04:53;15;14;
49644;PMS5003;36494;50.730;-1.932;2022-12-18T14:07:19;15;15;
49644;PMS5003;36494;50.730;-1.932;2022-12-18T14:09:45;15;13;
49644;PMS5003;36494;50.730;-1.932;2022-12-18T14:12:13;13;13;
49644;PMS5003;36494;50.730;-1.932;2022-12-18T14:14:34;15;14;
49644;PMS5003;36494;50.730;-1.932;2022-12-18T14:17:00;18;17;
49644;PMS5003;36494;50.730;-1.932;2022-12-18T14:19:26;17;15;
49644;PMS5003;36494;50.730;-1.932;2022-12-18T14:21:51;16;16;
49644;PMS5003;36494;50.730;-1.932;2022-12-18T14:24:17;12;12;
49644;PMS5003;36494;50.730;-1.932;2022-12-18T14:26:41;13;12;
49644;PMS5003;36494;50.730;-1.932;2022-12-18T14:29:18;16;15;
49644;PMS5003;36494;50.730;-1.932;2022-12-18T14:31:31;16;16;
49644;PMS5003;36494;50.730;-1.932;2022-12-18T14:33:57;45;41;
49644;PMS5003;36494;50.730;-1.932;2022-12-18T14:36:24;25;24;
49644;PMS5003;36494;50.730;-1.932;2022-12-18T14:38:49;19;19;
49644;PMS5003;36494;50.730;-1.932;2022-12-18T14:41:14;17;17;
49644;PMS5003;36494;50.730;-1.932;2022-12-18T14:43:39;18;16;
49644;PMS5003;36494;50.730;-1.932;2022-12-18T14:46:05;42;40;
49644;PMS5003;36494;50.730;-1.932;2022-12-18T14:48:33;32;29;
49644;PMS5003;36494;50.730;-1.932;2022-12-18T14:50:57;25;25;
49644;PMS5003;36494;50.730;-1.932;2022-12-18T14:53:21;17;16;
49644;PMS5003;36494;50.730;-1.932;2022-12-18T14:55:47;21;21;
49644;PMS5003;36494;50.730;-1.932;2022-12-18T14:58:12;19;17;
49644;PMS5003;36494;50.730;-1.932;2022-12-18T15:00:41;17;16;
49644;PMS5003;36494;50.730;-1.932;2022-12-18T15:03:05;19;15;
49644;PMS5003;36494;50.730;-1.932;2022-12-18T15:05:29;17;17;
49644;PMS5003;36494;50.730;-1.932;2022-12-18T15:07:55;25;24;
49644;PMS5003;36494;50.730;-1.932;2022-12-18T15:10:20;25;25;
49644;PMS5003;36494;50.730;-1.932;2022-12-18T15:12:45;20;19;
49644;PMS5003;36494;50.730;-1.932;2022-12-18T15:17:35;29;26;
49644;PMS5003;36494;50.730;-1.932;2022-12-18T15:20:00;17;17;
49644;PMS5003;36494;50.730;-1.932;2022-12-18T15:22:26;20;20;
49644;PMS5003;36494;50.730;-1.932;2022-12-18T15:24:51;16;16;
49644;PMS5003;36494;50.730;-1.932;2022-12-18T15:29:42;27;24;
49644;PMS5003;36494;50.730;-1.932;2022-12-18T15:32:15;27;25;
49644;PMS5003;36494;50.730;-1.932;2022-12-18T15:34:33;21;21;
49644;PMS5003;36494;50.730;-1.932;2022-12-18T15:36:58;26;25;
49644;PMS5003;36494;50.730;-1.932;2022-12-18T15:39:24;34;34;
49644;PMS5003;36494;50.730;-1.932;2022-12-18T15:41:49;24;23;
49644;PMS5003;36494;50.730;-1.932;2022-12-18T15:44:20;37;36;
49644;PMS5003;36494;50.730;-1.932;2022-12-18T15:46:41;25;24;
49644;PMS5003;36494;50.730;-1.932;2022-12-18T15:49:07;26;24;
49644;PMS5003;36494;50.730;-1.932;2022-12-18T15:51:33;36;36;
49644;PMS5003;36494;50.730;-1.932;2022-12-18T15:53:58;48;44;
49644;PMS5003;36494;50.730;-1.932;2022-12-18T15:56:22;27;26;
49644;PMS5003;36494;50.730;-1.932;2022-12-18T15:58:47;25;23;
49644;PMS5003;36494;50.730;-1.932;2022-12-18T16:01:13;24;23;
49644;PMS5003;36494;50.730;-1.932;2022-12-18T16:03:38;36;34;
49644;PMS5003;36494;50.730;-1.932;2022-12-18T16:06:04;39;36;
49644;PMS5003;36494;50.730;-1.932;2022-12-18T16:08:30;25;23;
49644;PMS5003;36494;50.730;-1.932;2022-12-18T16:10:55;21;20;
49644;PMS5003;36494;50.730;-1.932;2022-12-18T16:13:21;25;24;
49644;PMS5003;36494;50.730;-1.932;2022-12-18T16:15:46;21;21;
49644;PMS5003;36494;50.730;-1.932;2022-12-18T16:18:11;24;22;